sensor_id;sensor_type;location;lat;lon;timestamp;P1;durP1;ratioP1;P2;durP2;ratioP2
78372;SDS011;67656;52.074;4.758;2023-11-19T00:02:40;16.65;;;2.42;;
78372;SDS011;67656;52.074;4.758;2023-11-19T00:07:41;22.27;;;2.92;;
78372;SDS011;67656;52.074;4.758;2023-11-19T00:12:43;28.00;;;2.85;;
78372;SDS011;67656;52.074;4.758;2023-11-19T00:17:45;22.67;;;3.05;;
78372;SDS011;67656;52.074;4.758;2023-11-19T00:22:46;15.57;;;2.45;;
78372;SDS011;67656;52.074;4.758;2023-11-19T00:27:47;19.42;;;2.70;;
78372;SDS011;67656;52.074;4.758;2023-11-19T00:32:47;21.67;;;3.08;;
78372;SDS011;67656;52.074;4.758;2023-11-19T00:37:48;17.77;;;2.90;;
78372;SDS011;67656;52.074;4.758;2023-11-19T00:42:48;21.85;;;3.08;;
78372;SDS011;67656;52.074;4.758;2023-11-19T00:47:49;22.27;;;3.05;;
78372;SDS011;67656;52.074;4.758;2023-11-19T00:52:49;21.42;;;2.90;;
78372;SDS011;67656;52.074;4.758;2023-11-19T00:57:49;22.00;;;2.78;;
78372;SDS011;67656;52.074;4.758;2023-11-19T01:02:50;23.17;;;3.03;;
78372;SDS011;67656;52.074;4.758;2023-11-19T01:07:51;24.55;;;3.25;;
78372;SDS011;67656;52.074;4.758;2023-11-19T01:12:51;31.95;;;3.13;;
78372;SDS011;67656;52.074;4.758;2023-11-19T01:17:51;24.05;;;3.55;;
78372;SDS011;67656;52.074;4.758;2023-11-19T01:22:52;25.70;;;3.42;;
78372;SDS011;67656;52.074;4.758;2023-11-19T01:27:52;23.70;;;3.45;;
78372;SDS011;67656;52.074;4.758;2023-11-19T01:32:53;24.40;;;2.90;;
78372;SDS011;67656;52.074;4.758;2023-11-19T01:37:53;29.95;;;3.50;;
78372;SDS011;67656;52.074;4.758;2023-11-19T01:42:54;18.90;;;2.90;;
78372;SDS011;67656;52.074;4.758;2023-11-19T01:47:54;22.40;;;2.55;;
78372;SDS011;67656;52.074;4.758;2023-11-19T01:52:55;24.27;;;3.05;;
78372;SDS011;67656;52.074;4.758;2023-11-19T01:57:59;23.75;;;2.60;;
78372;SDS011;67656;52.074;4.758;2023-11-19T02:03:01;25.38;;;3.17;;
78372;SDS011;67656;52.074;4.758;2023-11-19T02:08:02;29.48;;;3.75;;
78372;SDS011;67656;52.074;4.758;2023-11-19T02:13:02;24.05;;;3.22;;
78372;SDS011;67656;52.074;4.758;2023-11-19T02:18:19;24.10;;;3.13;;
78372;SDS011;67656;52.074;4.758;2023-11-19T02:23:19;29.10;;;3.53;;
78372;SDS011;67656;52.074;4.758;2023-11-19T02:28:21;27.77;;;3.17;;
78372;SDS011;67656;52.074;4.758;2023-11-19T02:33:21;26.90;;;3.58;;
78372;SDS011;67656;52.074;4.758;2023-11-19T02:38:22;30.75;;;3.97;;
78372;SDS011;67656;52.074;4.758;2023-11-19T02:43:22;26.48;;;3.22;;
78372;SDS011;67656;52.074;4.758;2023-11-19T02:48:23;23.02;;;3.55;;
78372;SDS011;67656;52.074;4.758;2023-11-19T02:53:24;27.30;;;3.50;;
78372;SDS011;67656;52.074;4.758;2023-11-19T02:58:24;27.20;;;3.33;;
78372;SDS011;67656;52.074;4.758;2023-11-19T03:03:25;37.05;;;4.07;;
78372;SDS011;67656;52.074;4.758;2023-11-19T03:08:26;30.10;;;3.67;;
78372;SDS011;67656;52.074;4.758;2023-11-19T03:13:26;33.25;;;4.15;;
78372;SDS011;67656;52.074;4.758;2023-11-19T03:18:27;38.60;;;4.90;;
78372;SDS011;67656;52.074;4.758;2023-11-19T03:23:27;31.50;;;3.67;;
78372;SDS011;67656;52.074;4.758;2023-11-19T03:28:28;21.23;;;3.20;;
78372;SDS011;67656;52.074;4.758;2023-11-19T03:33:28;32.15;;;3.67;;
78372;SDS011;67656;52.074;4.758;2023-11-19T03:38:28;26.20;;;4.15;;
78372;SDS011;67656;52.074;4.758;2023-11-19T03:43:30;24.75;;;3.08;;
78372;SDS011;67656;52.074;4.758;2023-11-19T03:48:31;28.33;;;3.22;;
78372;SDS011;67656;52.074;4.758;2023-11-19T03:53:31;29.73;;;3.30;;
78372;SDS011;67656;52.074;4.758;2023-11-19T03:58:32;30.25;;;3.70;;
78372;SDS011;67656;52.074;4.758;2023-11-19T04:03:32;23.48;;;3.40;;
78372;SDS011;67656;52.074;4.758;2023-11-19T04:08:33;20.60;;;3.00;;
78372;SDS011;67656;52.074;4.758;2023-11-19T04:13:34;26.33;;;3.97;;
78372;SDS011;67656;52.074;4.758;2023-11-19T04:18:34;24.52;;;3.00;;
78372;SDS011;67656;52.074;4.758;2023-11-19T04:23:35;30.80;;;3.10;;
78372;SDS011;67656;52.074;4.758;2023-11-19T04:28:35;25.55;;;3.63;;
78372;SDS011;67656;52.074;4.758;2023-11-19T04:33:36;32.13;;;4.28;;
78372;SDS011;67656;52.074;4.758;2023-11-19T04:38:36;33.50;;;3.65;;
78372;SDS011;67656;52.074;4.758;2023-11-19T04:43:37;31.65;;;3.30;;
78372;SDS011;67656;52.074;4.758;2023-11-19T04:48:38;19.45;;;2.78;;
78372;SDS011;67656;52.074;4.758;2023-11-19T04:53:38;22.65;;;2.97;;
78372;SDS011;67656;52.074;4.758;2023-11-19T04:58:39;29.02;;;3.47;;
78372;SDS011;67656;52.074;4.758;2023-11-19T05:03:39;19.27;;;2.67;;
78372;SDS011;67656;52.074;4.758;2023-11-19T05:08:40;23.50;;;3.35;;
78372;SDS011;67656;52.074;4.758;2023-11-19T05:13:40;27.88;;;3.50;;
78372;SDS011;67656;52.074;4.758;2023-11-19T05:18:41;20.95;;;3.58;;
78372;SDS011;67656;52.074;4.758;2023-11-19T05:23:41;20.42;;;2.95;;
78372;SDS011;67656;52.074;4.758;2023-11-19T05:28:42;24.13;;;3.13;;
78372;SDS011;67656;52.074;4.758;2023-11-19T05:33:42;21.58;;;3.50;;
78372;SDS011;67656;52.074;4.758;2023-11-19T05:38:43;23.75;;;3.40;;
78372;SDS011;67656;52.074;4.758;2023-11-19T05:43:44;25.80;;;3.22;;
78372;SDS011;67656;52.074;4.758;2023-11-19T05:48:44;29.05;;;3.95;;
78372;SDS011;67656;52.074;4.758;2023-11-19T05:53:44;27.73;;;3.13;;
78372;SDS011;67656;52.074;4.758;2023-11-19T05:58:45;31.75;;;3.47;;
78372;SDS011;67656;52.074;4.758;2023-11-19T06:03:45;29.25;;;3.28;;
78372;SDS011;67656;52.074;4.758;2023-11-19T06:08:46;18.85;;;2.80;;
78372;SDS011;67656;52.074;4.758;2023-11-19T06:13:47;30.95;;;3.55;;
78372;SDS011;67656;52.074;4.758;2023-11-19T06:18:47;22.15;;;2.75;;
78372;SDS011;67656;52.074;4.758;2023-11-19T06:23:48;23.38;;;3.15;;
78372;SDS011;67656;52.074;4.758;2023-11-19T06:28:48;21.65;;;2.58;;
78372;SDS011;67656;52.074;4.758;2023-11-19T06:33:49;31.15;;;4.32;;
78372;SDS011;67656;52.074;4.758;2023-11-19T06:38:49;20.60;;;3.50;;
78372;SDS011;67656;52.074;4.758;2023-11-19T06:43:50;24.52;;;3.30;;
78372;SDS011;67656;52.074;4.758;2023-11-19T06:48:50;25.15;;;3.03;;
78372;SDS011;67656;52.074;4.758;2023-11-19T06:53:51;23.83;;;4.43;;
78372;SDS011;67656;52.074;4.758;2023-11-19T06:58:51;24.25;;;3.22;;
78372;SDS011;67656;52.074;4.758;2023-11-19T07:03:52;24.98;;;3.17;;
78372;SDS011;67656;52.074;4.758;2023-11-19T07:08:53;21.25;;;2.92;;
78372;SDS011;67656;52.074;4.758;2023-11-19T07:13:53;24.60;;;3.17;;
78372;SDS011;67656;52.074;4.758;2023-11-19T07:18:57;22.93;;;2.93;;
78372;SDS011;67656;52.074;4.758;2023-11-19T07:23:57;28.27;;;3.72;;
78372;SDS011;67656;52.074;4.758;2023-11-19T07:28:58;26.38;;;3.53;;
78372;SDS011;67656;52.074;4.758;2023-11-19T07:33:58;32.08;;;3.72;;
78372;SDS011;67656;52.074;4.758;2023-11-19T07:38:59;19.23;;;3.28;;
78372;SDS011;67656;52.074;4.758;2023-11-19T07:44:00;28.55;;;3.15;;
78372;SDS011;67656;52.074;4.758;2023-11-19T07:49:00;30.92;;;3.15;;
78372;SDS011;67656;52.074;4.758;2023-11-19T07:54:01;20.90;;;2.58;;
78372;SDS011;67656;52.074;4.758;2023-11-19T07:59:02;22.25;;;2.50;;
78372;SDS011;67656;52.074;4.758;2023-11-19T08:04:02;34.40;;;4.68;;
78372;SDS011;67656;52.074;4.758;2023-11-19T08:09:03;32.58;;;3.17;;
78372;SDS011;67656;52.074;4.758;2023-11-19T08:14:04;20.98;;;3.20;;
78372;SDS011;67656;52.074;4.758;2023-11-19T08:19:04;26.42;;;2.78;;
78372;SDS011;67656;52.074;4.758;2023-11-19T08:24:05;23.73;;;3.55;;
78372;SDS011;67656;52.074;4.758;2023-11-19T08:29:05;25.58;;;3.78;;
78372;SDS011;67656;52.074;4.758;2023-11-19T08:34:09;22.75;;;3.20;;
78372;SDS011;67656;52.074;4.758;2023-11-19T08:39:11;21.77;;;3.20;;
78372;SDS011;67656;52.074;4.758;2023-11-19T08:44:11;31.67;;;4.03;;
78372;SDS011;67656;52.074;4.758;2023-11-19T08:49:12;34.30;;;4.28;;
78372;SDS011;67656;52.074;4.758;2023-11-19T08:54:12;19.05;;;2.35;;
78372;SDS011;67656;52.074;4.758;2023-11-19T08:59:14;26.15;;;2.97;;
78372;SDS011;67656;52.074;4.758;2023-11-19T09:04:14;30.13;;;3.33;;
78372;SDS011;67656;52.074;4.758;2023-11-19T09:09:15;19.75;;;2.83;;
78372;SDS011;67656;52.074;4.758;2023-11-19T09:14:15;18.80;;;3.63;;
78372;SDS011;67656;52.074;4.758;2023-11-19T09:19:16;20.88;;;2.63;;
78372;SDS011;67656;52.074;4.758;2023-11-19T09:24:17;30.75;;;3.38;;
78372;SDS011;67656;52.074;4.758;2023-11-19T09:29:17;26.42;;;3.97;;
78372;SDS011;67656;52.074;4.758;2023-11-19T09:34:18;30.65;;;3.25;;
78372;SDS011;67656;52.074;4.758;2023-11-19T09:39:18;22.58;;;2.65;;
78372;SDS011;67656;52.074;4.758;2023-11-19T09:44:19;18.52;;;1.98;;
78372;SDS011;67656;52.074;4.758;2023-11-19T09:49:21;20.98;;;3.03;;
78372;SDS011;67656;52.074;4.758;2023-11-19T09:54:21;23.33;;;2.35;;
78372;SDS011;67656;52.074;4.758;2023-11-19T09:59:22;21.88;;;2.97;;
78372;SDS011;67656;52.074;4.758;2023-11-19T10:04:25;17.73;;;2.40;;
78372;SDS011;67656;52.074;4.758;2023-11-19T10:09:29;22.13;;;3.15;;
78372;SDS011;67656;52.074;4.758;2023-11-19T10:14:30;28.50;;;2.78;;
78372;SDS011;67656;52.074;4.758;2023-11-19T10:19:31;22.55;;;2.40;;
78372;SDS011;67656;52.074;4.758;2023-11-19T10:24:32;20.02;;;2.17;;
78372;SDS011;67656;52.074;4.758;2023-11-19T10:29:33;21.17;;;2.45;;
78372;SDS011;67656;52.074;4.758;2023-11-19T10:34:36;18.95;;;2.42;;
78372;SDS011;67656;52.074;4.758;2023-11-19T10:39:53;21.65;;;2.80;;
78372;SDS011;67656;52.074;4.758;2023-11-19T10:44:54;18.15;;;2.65;;
78372;SDS011;67656;52.074;4.758;2023-11-19T10:49:54;16.80;;;2.40;;
78372;SDS011;67656;52.074;4.758;2023-11-19T10:54:55;18.98;;;2.80;;
78372;SDS011;67656;52.074;4.758;2023-11-19T11:00:01;17.73;;;2.88;;
78372;SDS011;67656;52.074;4.758;2023-11-19T11:05:02;14.50;;;1.85;;
78372;SDS011;67656;52.074;4.758;2023-11-19T11:10:05;16.55;;;2.03;;
78372;SDS011;67656;52.074;4.758;2023-11-19T11:15:07;17.13;;;2.75;;
78372;SDS011;67656;52.074;4.758;2023-11-19T11:20:10;21.73;;;2.10;;
78372;SDS011;67656;52.074;4.758;2023-11-19T11:25:19;24.00;;;3.20;;
78372;SDS011;67656;52.074;4.758;2023-11-19T11:30:35;24.77;;;2.88;;
78372;SDS011;67656;52.074;4.758;2023-11-19T11:35:51;21.80;;;2.53;;
78372;SDS011;67656;52.074;4.758;2023-11-19T11:57:00;19.88;;;2.95;;
78372;SDS011;67656;52.074;4.758;2023-11-19T12:02:02;16.23;;;2.22;;
78372;SDS011;67656;52.074;4.758;2023-11-19T12:07:06;18.73;;;2.95;;
78372;SDS011;67656;52.074;4.758;2023-11-19T12:22:40;13.68;;;2.22;;
78372;SDS011;67656;52.074;4.758;2023-11-19T12:27:43;11.02;;;1.70;;
78372;SDS011;67656;52.074;4.758;2023-11-19T12:32:45;20.48;;;2.08;;
78372;SDS011;67656;52.074;4.758;2023-11-19T12:37:49;14.05;;;2.15;;
78372;SDS011;67656;52.074;4.758;2023-11-19T12:42:52;16.58;;;2.38;;
78372;SDS011;67656;52.074;4.758;2023-11-19T12:48:06;21.63;;;2.55;;
78372;SDS011;67656;52.074;4.758;2023-11-19T12:53:08;21.95;;;2.83;;
78372;SDS011;67656;52.074;4.758;2023-11-19T12:58:08;18.30;;;2.60;;
78372;SDS011;67656;52.074;4.758;2023-11-19T13:03:09;23.15;;;3.03;;
78372;SDS011;67656;52.074;4.758;2023-11-19T13:08:09;20.15;;;2.55;;
78372;SDS011;67656;52.074;4.758;2023-11-19T13:13:10;16.20;;;2.33;;
78372;SDS011;67656;52.074;4.758;2023-11-19T13:18:10;23.23;;;2.63;;
78372;SDS011;67656;52.074;4.758;2023-11-19T13:23:16;19.23;;;3.20;;
78372;SDS011;67656;52.074;4.758;2023-11-19T13:28:16;22.10;;;2.55;;
78372;SDS011;67656;52.074;4.758;2023-11-19T13:33:17;23.75;;;2.75;;
78372;SDS011;67656;52.074;4.758;2023-11-19T13:38:20;23.17;;;2.50;;
78372;SDS011;67656;52.074;4.758;2023-11-19T13:43:21;19.38;;;2.90;;
78372;SDS011;67656;52.074;4.758;2023-11-19T13:48:21;13.35;;;2.22;;
78372;SDS011;67656;52.074;4.758;2023-11-19T13:53:22;22.95;;;2.67;;
78372;SDS011;67656;52.074;4.758;2023-11-19T13:58:22;22.05;;;2.85;;
78372;SDS011;67656;52.074;4.758;2023-11-19T14:03:23;23.33;;;2.83;;
78372;SDS011;67656;52.074;4.758;2023-11-19T14:08:23;17.35;;;2.72;;
78372;SDS011;67656;52.074;4.758;2023-11-19T14:13:24;17.13;;;2.22;;
78372;SDS011;67656;52.074;4.758;2023-11-19T14:18:25;17.98;;;2.70;;
78372;SDS011;67656;52.074;4.758;2023-11-19T14:23:28;16.10;;;2.33;;
78372;SDS011;67656;52.074;4.758;2023-11-19T14:28:28;23.05;;;2.70;;
78372;SDS011;67656;52.074;4.758;2023-11-19T14:33:29;20.63;;;2.47;;
78372;SDS011;67656;52.074;4.758;2023-11-19T14:38:29;24.92;;;2.72;;
78372;SDS011;67656;52.074;4.758;2023-11-19T14:43:30;15.18;;;2.70;;
78372;SDS011;67656;52.074;4.758;2023-11-19T14:48:30;24.85;;;2.50;;
78372;SDS011;67656;52.074;4.758;2023-11-19T14:53:31;14.38;;;2.15;;
78372;SDS011;67656;52.074;4.758;2023-11-19T14:58:31;20.23;;;2.42;;
78372;SDS011;67656;52.074;4.758;2023-11-19T15:03:31;23.38;;;2.63;;
78372;SDS011;67656;52.074;4.758;2023-11-19T15:08:33;18.60;;;2.25;;
78372;SDS011;67656;52.074;4.758;2023-11-19T15:13:33;18.55;;;2.55;;
78372;SDS011;67656;52.074;4.758;2023-11-19T15:18:34;14.60;;;2.08;;
78372;SDS011;67656;52.074;4.758;2023-11-19T15:23:34;20.88;;;2.75;;
78372;SDS011;67656;52.074;4.758;2023-11-19T15:28:35;23.50;;;2.42;;
78372;SDS011;67656;52.074;4.758;2023-11-19T15:33:36;19.80;;;2.47;;
78372;SDS011;67656;52.074;4.758;2023-11-19T15:38:37;15.07;;;2.35;;
78372;SDS011;67656;52.074;4.758;2023-11-19T15:43:40;16.13;;;3.15;;
78372;SDS011;67656;52.074;4.758;2023-11-19T15:48:40;13.68;;;1.80;;
78372;SDS011;67656;52.074;4.758;2023-11-19T15:53:41;13.32;;;2.50;;
78372;SDS011;67656;52.074;4.758;2023-11-19T15:58:41;18.38;;;2.05;;
78372;SDS011;67656;52.074;4.758;2023-11-19T16:03:42;15.25;;;2.60;;
78372;SDS011;67656;52.074;4.758;2023-11-19T16:08:42;25.55;;;5.50;;
78372;SDS011;67656;52.074;4.758;2023-11-19T16:13:43;16.58;;;3.03;;
78372;SDS011;67656;52.074;4.758;2023-11-19T16:18:46;22.23;;;2.50;;
78372;SDS011;67656;52.074;4.758;2023-11-19T16:23:46;19.00;;;2.70;;
78372;SDS011;67656;52.074;4.758;2023-11-19T16:28:47;21.33;;;2.95;;
78372;SDS011;67656;52.074;4.758;2023-11-19T16:33:48;17.00;;;2.72;;
78372;SDS011;67656;52.074;4.758;2023-11-19T16:38:48;18.08;;;2.10;;
78372;SDS011;67656;52.074;4.758;2023-11-19T16:43:52;23.05;;;3.35;;
78372;SDS011;67656;52.074;4.758;2023-11-19T16:48:52;18.05;;;2.90;;
78372;SDS011;67656;52.074;4.758;2023-11-19T16:53:53;19.83;;;2.30;;
78372;SDS011;67656;52.074;4.758;2023-11-19T16:58:54;21.17;;;2.90;;
78372;SDS011;67656;52.074;4.758;2023-11-19T17:03:54;21.70;;;3.70;;
78372;SDS011;67656;52.074;4.758;2023-11-19T17:08:55;22.10;;;3.03;;
78372;SDS011;67656;52.074;4.758;2023-11-19T17:13:55;24.00;;;2.95;;
78372;SDS011;67656;52.074;4.758;2023-11-19T17:18:56;19.42;;;2.80;;
78372;SDS011;67656;52.074;4.758;2023-11-19T17:23:56;19.73;;;3.38;;
78372;SDS011;67656;52.074;4.758;2023-11-19T17:28:57;24.40;;;2.92;;
78372;SDS011;67656;52.074;4.758;2023-11-19T17:33:57;27.73;;;2.83;;
78372;SDS011;67656;52.074;4.758;2023-11-19T17:38:58;21.83;;;3.20;;
78372;SDS011;67656;52.074;4.758;2023-11-19T17:43:58;28.75;;;3.92;;
78372;SDS011;67656;52.074;4.758;2023-11-19T17:48:59;21.17;;;2.75;;
78372;SDS011;67656;52.074;4.758;2023-11-19T17:53:59;24.05;;;3.33;;
78372;SDS011;67656;52.074;4.758;2023-11-19T17:58:59;29.98;;;4.05;;
78372;SDS011;67656;52.074;4.758;2023-11-19T18:04:00;20.05;;;2.83;;
78372;SDS011;67656;52.074;4.758;2023-11-19T18:09:00;23.80;;;4.95;;
78372;SDS011;67656;52.074;4.758;2023-11-19T18:14:01;23.40;;;3.20;;
78372;SDS011;67656;52.074;4.758;2023-11-19T18:19:01;21.90;;;2.80;;
78372;SDS011;67656;52.074;4.758;2023-11-19T18:24:02;20.80;;;2.55;;
78372;SDS011;67656;52.074;4.758;2023-11-19T18:29:02;30.40;;;3.08;;
78372;SDS011;67656;52.074;4.758;2023-11-19T18:34:03;29.58;;;3.08;;
78372;SDS011;67656;52.074;4.758;2023-11-19T18:39:04;19.95;;;2.38;;
78372;SDS011;67656;52.074;4.758;2023-11-19T18:44:05;24.02;;;3.10;;
78372;SDS011;67656;52.074;4.758;2023-11-19T18:49:06;21.73;;;2.80;;
78372;SDS011;67656;52.074;4.758;2023-11-19T18:54:06;25.23;;;3.13;;
78372;SDS011;67656;52.074;4.758;2023-11-19T18:59:07;31.83;;;4.35;;
78372;SDS011;67656;52.074;4.758;2023-11-19T19:04:07;19.27;;;3.72;;
78372;SDS011;67656;52.074;4.758;2023-11-19T19:09:08;22.15;;;3.22;;
78372;SDS011;67656;52.074;4.758;2023-11-19T19:14:08;18.17;;;2.40;;
78372;SDS011;67656;52.074;4.758;2023-11-19T19:19:09;20.90;;;2.63;;
78372;SDS011;67656;52.074;4.758;2023-11-19T19:24:09;25.77;;;2.97;;
78372;SDS011;67656;52.074;4.758;2023-11-19T19:29:10;20.88;;;3.22;;
78372;SDS011;67656;52.074;4.758;2023-11-19T19:34:10;23.70;;;2.60;;
78372;SDS011;67656;52.074;4.758;2023-11-19T19:39:11;19.67;;;2.90;;
78372;SDS011;67656;52.074;4.758;2023-11-19T19:44:11;23.20;;;2.33;;
78372;SDS011;67656;52.074;4.758;2023-11-19T19:49:12;24.00;;;2.55;;
78372;SDS011;67656;52.074;4.758;2023-11-19T19:54:13;13.57;;;2.15;;
78372;SDS011;67656;52.074;4.758;2023-11-19T19:59:13;20.88;;;2.47;;
78372;SDS011;67656;52.074;4.758;2023-11-19T20:04:14;18.65;;;2.42;;
78372;SDS011;67656;52.074;4.758;2023-11-19T20:09:16;14.13;;;2.70;;
78372;SDS011;67656;52.074;4.758;2023-11-19T20:14:16;17.33;;;2.10;;
78372;SDS011;67656;52.074;4.758;2023-11-19T20:19:17;20.88;;;2.10;;
78372;SDS011;67656;52.074;4.758;2023-11-19T20:24:17;18.75;;;2.95;;
78372;SDS011;67656;52.074;4.758;2023-11-19T20:29:18;18.98;;;2.60;;
78372;SDS011;67656;52.074;4.758;2023-11-19T20:34:18;19.63;;;2.53;;
78372;SDS011;67656;52.074;4.758;2023-11-19T20:39:24;11.30;;;2.13;;
78372;SDS011;67656;52.074;4.758;2023-11-19T20:44:25;15.95;;;1.95;;
78372;SDS011;67656;52.074;4.758;2023-11-19T20:49:25;15.65;;;2.08;;
78372;SDS011;67656;52.074;4.758;2023-11-19T20:54:26;9.98;;;1.60;;
78372;SDS011;67656;52.074;4.758;2023-11-19T20:59:26;16.02;;;1.98;;
78372;SDS011;67656;52.074;4.758;2023-11-19T21:04:27;13.98;;;2.00;;
78372;SDS011;67656;52.074;4.758;2023-11-19T21:09:28;11.80;;;1.85;;
78372;SDS011;67656;52.074;4.758;2023-11-19T21:14:31;8.95;;;1.77;;
78372;SDS011;67656;52.074;4.758;2023-11-19T21:19:31;17.90;;;3.38;;
78372;SDS011;67656;52.074;4.758;2023-11-19T21:24:34;8.52;;;1.95;;
78372;SDS011;67656;52.074;4.758;2023-11-19T21:29:34;14.40;;;2.13;;
78372;SDS011;67656;52.074;4.758;2023-11-19T21:34:35;11.48;;;1.40;;
78372;SDS011;67656;52.074;4.758;2023-11-19T21:39:35;9.88;;;1.77;;
78372;SDS011;67656;52.074;4.758;2023-11-19T21:44:36;9.07;;;1.73;;
78372;SDS011;67656;52.074;4.758;2023-11-19T21:49:36;8.63;;;1.25;;
78372;SDS011;67656;52.074;4.758;2023-11-19T21:54:37;9.95;;;1.67;;
78372;SDS011;67656;52.074;4.758;2023-11-19T21:59:37;10.15;;;1.50;;
78372;SDS011;67656;52.074;4.758;2023-11-19T22:04:38;11.82;;;1.88;;
78372;SDS011;67656;52.074;4.758;2023-11-19T22:09:38;14.48;;;1.83;;
78372;SDS011;67656;52.074;4.758;2023-11-19T22:14:40;9.57;;;1.63;;
78372;SDS011;67656;52.074;4.758;2023-11-19T22:19:40;9.27;;;1.30;;
78372;SDS011;67656;52.074;4.758;2023-11-19T22:24:41;9.55;;;1.38;;
78372;SDS011;67656;52.074;4.758;2023-11-19T22:29:41;8.80;;;1.52;;
78372;SDS011;67656;52.074;4.758;2023-11-19T22:34:44;12.68;;;1.30;;
78372;SDS011;67656;52.074;4.758;2023-11-19T22:39:45;9.05;;;1.38;;
78372;SDS011;67656;52.074;4.758;2023-11-19T22:44:45;9.73;;;1.38;;
78372;SDS011;67656;52.074;4.758;2023-11-19T22:49:46;8.93;;;1.35;;
78372;SDS011;67656;52.074;4.758;2023-11-19T22:54:46;9.30;;;1.15;;
78372;SDS011;67656;52.074;4.758;2023-11-19T22:59:47;10.65;;;1.40;;
78372;SDS011;67656;52.074;4.758;2023-11-19T23:04:47;10.43;;;1.38;;
78372;SDS011;67656;52.074;4.758;2023-11-19T23:09:47;8.63;;;1.20;;
78372;SDS011;67656;52.074;4.758;2023-11-19T23:14:48;10.60;;;1.77;;
78372;SDS011;67656;52.074;4.758;2023-11-19T23:19:48;11.93;;;1.40;;
78372;SDS011;67656;52.074;4.758;2023-11-19T23:24:49;10.88;;;1.45;;
78372;SDS011;67656;52.074;4.758;2023-11-19T23:29:49;7.25;;;1.20;;
78372;SDS011;67656;52.074;4.758;2023-11-19T23:34:50;12.93;;;1.42;;
78372;SDS011;67656;52.074;4.758;2023-11-19T23:39:51;13.05;;;1.63;;
78372;SDS011;67656;52.074;4.758;2023-11-19T23:44:51;15.85;;;2.03;;
78372;SDS011;67656;52.074;4.758;2023-11-19T23:49:52;7.97;;;1.30;;
78372;SDS011;67656;52.074;4.758;2023-11-19T23:54:52;9.48;;;1.60;;
78372;SDS011;67656;52.074;4.758;2023-11-19T23:59:53;9.60;;;2.03;;
